Time;durP1;ratioP1;P1;durP2;ratioP2;P2;SDS_P1;SDS_P2;PMS_P1;PMS_P2;Temp;Humidity;BMP_temperature;BMP_pressure;BME280_temperature;BME280_humidity;BME280_pressure;Samples;Min_cycle;Max_cycle;Signal;HPM_P1;HPM_P2
2022/12/22 03:26:15;;;;;;;;;;;;;;;12.84;100.00;99361.75;5079865;28;20021;-63
2022/12/22 03:28:40;;;;;;;;;;;;;;;12.89;100.00;99346.38;5093544;28;20040;-63
2022/12/22 03:31:06;;;;;;;;;;;;;;;12.92;100.00;99353.34;5079315;28;20388;-62
2022/12/22 03:33:31;;;;;;;;;;;;;;;12.91;100.00;99354.28;5073160;28;20025;-63
2022/12/22 03:35:57;;;;;;;;;;;;;;;12.92;100.00;99351.53;5082388;28;20015;-63
2022/12/22 03:38:22;;;;;;;;;;;;;;;12.92;100.00;99356.00;5093259;28;20005;-62
2022/12/22 03:40:47;;;;;;;;;;;;;;;12.89;100.00;99359.72;5094462;28;19990;-63
2022/12/22 03:48:42;;;;;;;;;;;;;;;12.78;100.00;99347.88;5090452;28;19958;-62
2022/12/22 03:51:08;;;;;;;;;;;;;;;12.75;100.00;99340.88;5094212;28;19935;-62
2022/12/22 03:53:33;;;;;;;;;;;;;;;12.69;100.00;99340.31;5076036;28;19942;-62
2022/12/22 03:55:58;;;;;;;;;;;;;;;12.69;100.00;99343.88;5073708;28;19932;-63
2022/12/22 03:58:24;;;;;;;;;;;;;;;12.68;100.00;99344.81;5075707;28;19949;-61
2022/12/22 04:00:49;;;;;;;;;;;;;;;12.68;100.00;99339.50;5073676;28;19992;-62
2022/12/22 04:03:14;;;;;;;;;;;;;;;12.60;100.00;99346.16;5079198;28;19965;-62
2022/12/22 04:05:40;;;;;;;;;;;;;;;12.69;100.00;99340.31;5084817;28;19926;-62
2022/12/22 04:08:05;;;;;;;;;;;;;;;12.64;100.00;99339.69;5093591;28;20383;-62
2022/12/22 04:13:14;;;;;;;;;;;;;;;12.61;100.00;99334.53;5073471;28;19939;-62
2022/12/22 04:15:39;;;;;;;;;;;;;;;12.64;100.00;99340.56;5073343;28;20701;-62
2022/12/22 04:18:05;;;;;;;;;;;;;;;12.69;100.00;99335.88;5073268;28;20577;-62
2022/12/22 04:20:30;;;;;;;;;;;;;;;12.67;100.00;99339.53;5087214;28;19969;-63
2022/12/22 04:22:56;;;;;;;;;;;;;;;12.69;100.00;99329.66;5093562;28;19913;-63
2022/12/22 04:25:22;;;;;;;;;;;;;;;12.74;100.00;99333.81;5093635;28;19977;-63
2022/12/22 04:27:47;;;;;;;;;;;;;;;12.79;100.00;99333.56;5091724;28;19962;-62
2022/12/22 04:30:13;;;;;;;;;;;;;;;12.81;100.00;99335.22;5075153;28;19962;-62
2022/12/22 04:32:38;;;;;;;;;;;;;;;12.82;100.00;99336.94;5072970;28;19920;-62
2022/12/22 04:35:04;;;;;;;;;;;;;;;12.83;100.00;99337.81;5084143;28;19924;-62
2022/12/22 04:37:29;;;;;;;;;;;;;;;12.82;100.00;99339.63;5075415;28;19923;-62
2022/12/22 04:39:55;;;;;;;;;;;;;;;12.81;100.00;99332.56;5075194;28;19923;-62
2022/12/22 04:42:20;;;;;;;;;;;;;;;12.87;100.00;99332.22;5073000;28;20007;-62
2022/12/22 04:44:45;;;;;;;;;;;;;;;12.92;100.00;99332.84;5072637;28;19973;-62
2022/12/22 04:47:11;;;;;;;;;;;;;;;12.87;100.00;99324.22;5074818;28;19924;-62
2022/12/22 04:49:36;;;;;;;;;;;;;;;12.88;100.00;99325.94;5072312;28;20440;-62
2022/12/22 04:52:01;;;;;;;;;;;;;;;12.89;100.00;99327.69;5072497;28;19912;-62
2022/12/22 04:54:26;;;;;;;;;;;;;;;12.86;100.00;99317.19;5074687;28;19955;-62
2022/12/22 04:56:52;;;;;;;;;;;;;;;12.85;100.00;99311.91;5072639;28;20282;-62
2022/12/22 04:59:17;;;;;;;;;;;;;;;12.89;100.00;99311.66;5074835;28;19954;-62
2022/12/22 05:01:42;;;;;;;;;;;;;;;12.97;100.00;99305.91;5072514;28;20045;-62
2022/12/22 05:04:08;;;;;;;;;;;;;;;12.91;100.00;99299.13;5095416;28;20774;-62
2022/12/22 05:06:33;;;;;;;;;;;;;;;12.93;100.00;99297.19;5096026;28;19942;-62
2022/12/22 05:08:58;;;;;;;;;;;;;;;12.94;100.00;99296.28;5090191;28;19952;-62
2022/12/22 05:11:23;;;;;;;;;;;;;;;12.98;100.00;99303.16;5092446;28;20362;-62
2022/12/22 05:13:49;;;;;;;;;;;;;;;12.94;100.00;99293.59;5088534;28;19954;-62
2022/12/22 05:16:15;;;;;;;;;;;;;;;12.93;100.00;99296.34;5072296;28;19976;-62
2022/12/22 05:18:41;;;;;;;;;;;;;;;12.98;100.00;99300.47;5071580;28;19934;-62
2022/12/22 05:21:08;;;;;;;;;;;;;;;12.98;100.00;99295.16;5084592;28;20378;-62
2022/12/22 05:23:33;;;;;;;;;;;;;;;12.95;100.00;99303.31;5092322;28;20009;-62
2022/12/22 05:25:59;;;;;;;;;;;;;;;12.98;100.00;99311.16;5087093;28;20760;-62
2022/12/22 05:28:24;;;;;;;;;;;;;;;12.98;100.00;99295.16;5071780;28;20000;-62
2022/12/22 05:30:49;;;;;;;;;;;;;;;13.00;100.00;99293.25;5071778;28;20040;-62
2022/12/22 05:33:15;;;;;;;;;;;;;;;13.07;100.00;99296.50;5071675;28;20305;-62
2022/12/22 05:35:40;;;;;;;;;;;;;;;13.08;100.00;99296.41;5080921;28;19938;-62
2022/12/22 05:38:05;;;;;;;;;;;;;;;13.15;100.00;99297.81;5092107;28;19970;-62
2022/12/22 05:40:30;;;;;;;;;;;;;;;13.13;100.00;99291.69;5091939;28;19966;-62
2022/12/22 05:42:56;;;;;;;;;;;;;;;13.11;100.00;99293.56;5089426;28;19940;-62
2022/12/22 05:45:21;;;;;;;;;;;;;;;13.16;100.00;99278.16;5073707;28;20305;-62
2022/12/22 05:47:48;;;;;;;;;;;;;;;13.17;100.00;99269.22;5082327;28;20049;-62
2022/12/22 05:50:15;;;;;;;;;;;;;;;13.20;100.00;99282.41;5091684;28;19973;-62
2022/12/22 05:52:40;;;;;;;;;;;;;;;13.22;100.00;99287.66;5089546;28;19981;-62
2022/12/22 05:55:06;;;;;;;;;;;;;;;13.19;100.00;99279.81;5070834;28;19946;-62
2022/12/22 05:57:31;;;;;;;;;;;;;;;13.29;100.00;99278.38;5071108;28;19931;-62
2022/12/22 05:59:56;;;;;;;;;;;;;;;13.30;100.00;99280.09;5081873;28;19964;-63
2022/12/22 06:02:22;;;;;;;;;;;;;;;13.35;100.00;99287.84;5074170;28;20375;-63
2022/12/22 06:04:47;;;;;;;;;;;;;;;13.33;100.00;99292.41;5099531;28;19954;-63
2022/12/22 06:07:12;;;;;;;;;;;;;;;13.29;100.00;99294.41;5090913;28;20131;-62
2022/12/22 06:09:37;;;;;;;;;;;;;;;13.36;98.48;99289.56;5088851;28;19954;-63
2022/12/22 06:12:03;;;;;;;;;;;;;;;13.39;97.92;99308.09;5073306;28;19981;-63
2022/12/22 06:14:28;;;;;;;;;;;;;;;13.39;97.89;99306.31;5071655;28;20371;-63
2022/12/22 06:16:53;;;;;;;;;;;;;;;13.40;97.61;99312.47;5073692;28;20414;-62
2022/12/22 06:19:19;;;;;;;;;;;;;;;13.43;97.69;99312.31;5071149;28;19949;-62
2022/12/22 06:21:44;;;;;;;;;;;;;;;13.41;96.92;99314.22;5073399;28;20349;-62
2022/12/22 06:24:09;;;;;;;;;;;;;;;13.51;95.80;99315.44;5071321;28;19931;-62
2022/12/22 06:26:35;;;;;;;;;;;;;;;13.49;95.54;99318.22;5071132;28;19975;-63
2022/12/22 06:29:00;;;;;;;;;;;;;;;13.60;95.25;99325.59;5071330;28;19973;-62
2022/12/22 06:31:25;;;;;;;;;;;;;;;13.57;94.38;99336.47;5073652;28;19943;-62
2022/12/22 06:33:50;;;;;;;;;;;;;;;13.61;94.62;99327.31;5073704;28;19949;-62
2022/12/22 06:36:16;;;;;;;;;;;;;;;13.57;93.88;99331.13;5083797;28;20276;-63
2022/12/22 06:38:41;;;;;;;;;;;;;;;13.64;93.79;99340.53;5088348;28;19916;-62
2022/12/22 06:41:06;;;;;;;;;;;;;;;13.66;93.13;99330.59;5091342;28;19975;-62
2022/12/22 06:43:31;;;;;;;;;;;;;;;13.70;92.35;99327.69;5086082;28;19934;-62
2022/12/22 06:45:57;;;;;;;;;;;;;;;13.72;90.90;99333.78;5073171;28;19942;-63
2022/12/22 06:48:22;;;;;;;;;;;;;;;13.73;91.29;99337.34;5070928;28;19966;-62
2022/12/22 06:50:47;;;;;;;;;;;;;;;13.66;91.09;99335.94;5070989;28;19916;-62
2022/12/22 06:53:12;;;;;;;;;;;;;;;13.71;89.64;99332.06;5071963;28;19916;-62
2022/12/22 06:55:38;;;;;;;;;;;;;;;13.77;89.23;99338.91;5070863;28;19950;-62
2022/12/22 06:58:03;;;;;;;;;;;;;;;13.80;89.56;99339.59;5073319;28;19965;-63
2022/12/22 07:00:29;;;;;;;;;;;;;;;13.76;89.65;99313.09;5074725;28;19984;-62
2022/12/22 07:02:54;;;;;;;;;;;;;;;13.77;89.08;99345.09;5082286;28;19932;-62
2022/12/22 07:05:19;;;;;;;;;;;;;;;13.82;88.88;99352.88;5108687;28;20064;-62
2022/12/22 07:07:44;;;;;;;;;;;;;;;13.82;89.36;99353.72;5094846;28;20328;-62
2022/12/22 07:10:10;;;;;;;;;;;;;;;13.77;88.42;99349.59;5090515;28;19920;-62
2022/12/22 07:12:36;;;;;;;;;;;;;;;13.75;88.73;99347.00;5094647;28;19932;-62
2022/12/22 07:15:01;;;;;;;;;;;;;;;13.75;88.91;99346.13;5094752;28;19922;-62
2022/12/22 07:17:26;;;;;;;;;;;;;;;13.69;88.90;99352.66;5094496;28;19926;-62
2022/12/22 07:19:51;;;;;;;;;;;;;;;13.67;87.48;99343.03;5085732;28;19997;-62
2022/12/22 07:22:17;;;;;;;;;;;;;;;13.74;87.43;99349.78;5074428;28;19989;-63
2022/12/22 07:24:42;;;;;;;;;;;;;;;13.77;87.82;99354.94;5074516;28;19931;-62
2022/12/22 07:27:07;;;;;;;;;;;;;;;13.75;87.68;99364.84;5083710;28;19928;-62
2022/12/22 07:29:35;;;;;;;;;;;;;;;13.74;88.32;99361.31;5081540;28;20045;-62
2022/12/22 07:32:00;;;;;;;;;;;;;;;13.73;88.21;99364.06;5074242;28;20010;-63
2022/12/22 07:34:25;;;;;;;;;;;;;;;13.70;88.87;99359.75;5074159;28;20049;-62
2022/12/22 07:36:50;;;;;;;;;;;;;;;13.72;89.47;99362.34;5092392;28;20313;-62
2022/12/22 07:39:16;;;;;;;;;;;;;;;13.70;89.24;99366.91;5078983;28;20026;-62
2022/12/22 07:44:25;;;;;;;;;;;;;;;13.63;90.49;99345.00;5070969;28;20018;-62
2022/12/22 07:46:50;;;;;;;;;;;;;;;13.62;92.26;99339.75;5073014;28;19958;-62
2022/12/22 07:51:59;;;;;;;;;;;;;;;13.36;95.50;99351.84;5090596;28;20439;-62
2022/12/22 07:54:25;;;;;;;;;;;;;;;13.35;96.45;99351.94;5077863;28;19931;-62
2022/12/22 07:56:51;;;;;;;;;;;;;;;13.28;96.79;99355.91;5073723;28;20508;-62
2022/12/22 07:59:16;;;;;;;;;;;;;;;13.26;96.74;99352.44;5085949;28;19920;-62
2022/12/22 08:01:42;;;;;;;;;;;;;;;13.18;96.93;99350.19;5081376;28;19927;-62
2022/12/22 08:04:10;;;;;;;;;;;;;;;13.18;95.72;99361.72;5074893;28;19943;-62
2022/12/22 08:06:36;;;;;;;;;;;;;;;13.26;94.72;99355.13;5090565;28;20030;-62
2022/12/22 08:09:02;;;;;;;;;;;;;;;13.21;94.43;99350.88;5089385;28;20045;-62
2022/12/22 08:11:27;;;;;;;;;;;;;;;13.27;93.35;99355.03;5079147;28;19937;-62
2022/12/22 08:13:52;;;;;;;;;;;;;;;13.33;92.70;99353.84;5072387;28;19930;-62
2022/12/22 08:16:19;;;;;;;;;;;;;;;13.36;92.80;99348.34;5072405;28;19931;-62
2022/12/22 08:18:45;;;;;;;;;;;;;;;13.41;90.57;99346.28;5090098;28;19926;-63
2022/12/22 08:21:10;;;;;;;;;;;;;;;13.54;89.81;99350.00;5089147;28;20001;-61
2022/12/22 08:23:35;;;;;;;;;;;;;;;13.52;90.66;99362.56;5091673;28;19955;-62
2022/12/22 08:26:03;;;;;;;;;;;;;;;13.43;93.43;99360.38;5086154;28;20437;-63
2022/12/22 08:28:32;;;;;;;;;;;;;;;13.34;94.55;99366.25;5075198;28;19953;-62
2022/12/22 08:30:58;;;;;;;;;;;;;;;13.27;95.94;99362.19;5073313;28;20004;-61
2022/12/22 08:33:23;;;;;;;;;;;;;;;13.12;97.13;99359.41;5085055;28;20007;-64
2022/12/22 08:35:48;;;;;;;;;;;;;;;13.09;97.11;99370.25;5077441;28;20401;-63
2022/12/22 08:38:14;;;;;;;;;;;;;;;13.07;98.06;99364.13;5073058;28;20371;-63
2022/12/22 08:40:41;;;;;;;;;;;;;;;13.06;98.89;99367.72;5081969;28;19916;-63
2022/12/22 08:43:08;;;;;;;;;;;;;;;13.02;98.42;99379.50;5079208;28;19937;-63
2022/12/22 08:45:34;;;;;;;;;;;;;;;13.04;98.66;99379.44;5077420;28;19947;-63
2022/12/22 08:47:59;;;;;;;;;;;;;;;13.06;98.79;99374.88;5071708;28;19951;-62
2022/12/22 08:50:24;;;;;;;;;;;;;;;12.99;98.56;99376.97;5071946;28;19923;-62
2022/12/22 08:52:50;;;;;;;;;;;;;;;13.01;98.43;99385.78;5086399;28;19930;-62
2022/12/22 08:55:15;;;;;;;;;;;;;;;13.05;98.19;99384.69;5084852;28;19955;-62
2022/12/22 08:57:40;;;;;;;;;;;;;;;13.09;97.96;99386.25;5074010;28;20375;-63
2022/12/22 09:00:07;;;;;;;;;;;;;;;13.08;98.83;99397.88;5092153;28;20437;-63
2022/12/22 09:02:33;;;;;;;;;;;;;;;13.06;98.46;99391.75;5082022;28;19975;-63
2022/12/22 09:04:58;;;;;;;;;;;;;;;13.05;99.29;99395.38;5084727;28;19948;-63
2022/12/22 09:07:23;;;;;;;;;;;;;;;13.05;99.35;99397.16;5079367;28;19992;-63
2022/12/22 09:09:49;;;;;;;;;;;;;;;13.03;99.58;99404.41;5085879;28;19958;-63
2022/12/22 09:12:14;;;;;;;;;;;;;;;13.00;98.76;99413.41;5081843;28;19941;-61
2022/12/22 09:14:40;;;;;;;;;;;;;;;13.05;98.02;99403.38;5074499;28;20671;-61
2022/12/22 09:17:05;;;;;;;;;;;;;;;13.15;97.14;99417.97;5074191;28;19957;-62
2022/12/22 09:19:30;;;;;;;;;;;;;;;13.18;96.69;99409.81;5075306;28;19938;-63
2022/12/22 09:21:56;;;;;;;;;;;;;;;13.23;96.42;99416.72;5078379;28;19947;-63
2022/12/22 09:24:21;;;;;;;;;;;;;;;13.23;96.68;99427.41;5086203;28;19939;-63
2022/12/22 09:26:46;;;;;;;;;;;;;;;13.18;96.57;99425.81;5087513;28;19976;-63
2022/12/22 09:29:14;;;;;;;;;;;;;;;13.24;96.98;99432.66;5080968;28;19986;-63
2022/12/22 09:31:40;;;;;;;;;;;;;;;13.24;97.69;99438.84;5089486;28;19930;-63
2022/12/22 09:34:06;;;;;;;;;;;;;;;13.23;96.88;99454.09;5087537;28;19934;-63
2022/12/22 09:36:32;;;;;;;;;;;;;;;13.28;97.57;99452.06;5090215;28;20666;-61
2022/12/22 09:38:58;;;;;;;;;;;;;;;13.29;97.60;99464.47;5084511;28;19989;-64
2022/12/22 09:41:26;;;;;;;;;;;;;;;13.26;98.22;99470.84;5075077;28;20386;-63
2022/12/22 09:43:51;;;;;;;;;;;;;;;13.28;99.61;99476.09;5069858;28;20040;-63
2022/12/22 09:46:22;;;;;;;;;;;;;;;13.20;100.00;99477.34;5070536;28;20363;-62
2022/12/22 09:48:49;;;;;;;;;;;;;;;13.16;100.00;99486.44;5084282;28;20326;-62
2022/12/22 09:51:16;;;;;;;;;;;;;;;13.16;100.00;99482.94;5087792;28;19928;-62
2022/12/22 09:53:42;;;;;;;;;;;;;;;13.17;100.00;99487.31;5069978;28;19956;-62
2022/12/22 09:56:11;;;;;;;;;;;;;;;13.18;100.00;99495.25;5069408;28;19920;-63
2022/12/22 09:58:36;;;;;;;;;;;;;;;13.13;100.00;99491.94;5069429;28;19939;-63
2022/12/22 10:01:05;;;;;;;;;;;;;;;13.11;100.00;99493.81;5079744;28;19936;-63
2022/12/22 10:03:33;;;;;;;;;;;;;;;13.18;100.00;99489.91;5077445;28;19920;-63
2022/12/22 10:06:04;;;;;;;;;;;;;;;13.21;100.00;99511.13;5076418;28;19970;-62
2022/12/22 10:08:33;;;;;;;;;;;;;;;13.18;100.00;99513.94;5078418;28;19921;-62
2022/12/22 10:10:58;;;;;;;;;;;;;;;13.10;100.00;99515.28;5078608;28;19949;-62
2022/12/22 10:13:23;;;;;;;;;;;;;;;13.14;100.00;99515.06;5070976;28;19935;-63
2022/12/22 10:15:50;;;;;;;;;;;;;;;13.16;100.00;99520.31;5071421;28;20388;-63
2022/12/22 10:18:16;;;;;;;;;;;;;;;13.20;100.00;99532.56;5083298;28;19924;-63
2022/12/22 10:20:43;;;;;;;;;;;;;;;13.17;100.00;99527.38;5070416;28;20538;-62
2022/12/22 10:23:17;;;;;;;;;;;;;;;13.21;100.00;99539.66;5086783;28;20060;-63
2022/12/22 10:25:59;;;;;;;;;;;;;;;13.19;100.00;99518.34;5089412;28;19935;-63
2022/12/22 10:28:26;;;;;;;;;;;;;;;13.22;100.00;99525.34;5083465;28;19989;-62
2022/12/22 10:31:10;;;;;;;;;;;;;;;13.25;100.00;99522.50;5070938;28;20447;-63
2022/12/22 10:33:38;;;;;;;;;;;;;;;13.37;98.91;99513.88;5077771;28;20450;-62
2022/12/22 10:36:04;;;;;;;;;;;;;;;13.47;98.39;99527.63;5081573;28;20003;-62
2022/12/22 10:38:31;;;;;;;;;;;;;;;13.49;95.53;99515.91;5089418;28;19990;-62
2022/12/22 10:40:57;;;;;;;;;;;;;;;13.62;95.91;99521.47;5080516;28;19938;-62
2022/12/22 10:43:34;;;;;;;;;;;;;;;13.69;95.44;99517.53;5078328;28;19927;-62
2022/12/22 10:46:00;;;;;;;;;;;;;;;13.67;94.57;99520.28;5085131;28;19929;-63
2022/12/22 10:48:33;;;;;;;;;;;;;;;13.74;93.81;99531.53;5074546;28;19956;-64
2022/12/22 10:50:59;;;;;;;;;;;;;;;13.78;94.03;99528.59;5076504;28;19941;-63
2022/12/22 10:53:56;;;;;;;;;;;;;;;13.79;92.96;99524.13;5083528;28;20314;-64
2022/12/22 10:56:26;;;;;;;;;;;;;;;13.84;92.64;99528.25;5052198;28;19939;-61
2022/12/22 10:59:01;;;;;;;;;;;;;;;13.80;92.21;99523.16;5084732;28;19927;-61
2022/12/22 11:01:35;;;;;;;;;;;;;;;13.82;92.50;99530.13;5083559;28;19916;-62
2022/12/22 11:04:33;;;;;;;;;;;;;;;13.91;92.20;99518.09;5085856;28;19965;-65
2022/12/22 11:06:58;;;;;;;;;;;;;;;13.85;93.09;99529.13;5063823;28;20010;-65
2022/12/22 11:09:24;;;;;;;;;;;;;;;13.83;92.16;99531.00;5085366;28;20414;-65
2022/12/22 11:11:58;;;;;;;;;;;;;;;13.84;91.97;99538.94;5082257;28;20001;-65
2022/12/22 11:14:23;;;;;;;;;;;;;;;13.83;92.16;99529.22;5086383;28;19926;-65
2022/12/22 11:16:57;;;;;;;;;;;;;;;13.89;92.67;99525.34;5077069;28;19916;-65
2022/12/22 11:19:40;;;;;;;;;;;;;;;13.84;92.29;99527.38;5082563;28;20098;-65
2022/12/22 11:22:12;;;;;;;;;;;;;;;13.89;91.67;99519.97;5082070;28;19947;-65
2022/12/22 11:24:43;;;;;;;;;;;;;;;13.92;91.60;99522.53;5088288;28;19927;-65
2022/12/22 11:27:17;;;;;;;;;;;;;;;13.93;92.19;99521.56;5090741;28;20435;-64
2022/12/22 11:30:00;;;;;;;;;;;;;;;13.99;91.64;99515.88;5089125;28;19958;-63
2022/12/22 11:32:29;;;;;;;;;;;;;;;14.01;92.30;99522.00;5075584;28;20274;-65
2022/12/22 11:35:03;;;;;;;;;;;;;;;13.97;90.51;99533.84;5077615;28;19976;-65
2022/12/22 11:37:43;;;;;;;;;;;;;;;14.07;89.99;99532.34;5087424;28;19979;-65
2022/12/22 11:40:17;;;;;;;;;;;;;;;14.04;89.35;99541.44;5091604;28;20003;-64
2022/12/22 11:42:45;;;;;;;;;;;;;;;14.12;89.49;99538.31;5084678;28;20332;-65
2022/12/22 11:45:29;;;;;;;;;;;;;;;14.18;88.63;99540.69;5076409;28;19924;-64
2022/12/22 11:48:00;;;;;;;;;;;;;;;14.16;88.70;99545.25;5089029;28;20547;-65
2022/12/22 11:50:31;;;;;;;;;;;;;;;14.17;89.32;99536.25;5091047;28;19965;-65
2022/12/22 11:53:00;;;;;;;;;;;;;;;14.15;89.35;99551.56;5089905;28;19937;-65
2022/12/22 11:55:35;;;;;;;;;;;;;;;14.13;88.47;99540.06;5093419;28;19926;-64
2022/12/22 11:58:13;;;;;;;;;;;;;;;14.25;87.98;99550.09;5079605;28;20284;-65
2022/12/22 12:00:58;;;;;;;;;;;;;;;14.24;88.62;99556.38;5072982;28;19931;-64
2022/12/22 12:03:59;;;;;;;;;;;;;;;14.24;87.43;99549.22;5080143;28;19923;-65
2022/12/22 12:06:47;;;;;;;;;;;;;;;14.38;87.44;99549.34;5081226;28;19928;-64
2022/12/22 12:09:20;;;;;;;;;;;;;;;14.40;87.14;99550.13;5063701;28;19993;-65
2022/12/22 12:12:04;;;;;;;;;;;;;;;14.39;87.03;99552.91;5075883;28;19956;-64
2022/12/22 12:14:37;;;;;;;;;;;;;;;14.38;86.54;99548.50;5073416;28;19922;-65
2022/12/22 12:17:14;;;;;;;;;;;;;;;14.52;86.62;99554.81;5075949;28;19936;-64
2022/12/22 12:19:49;;;;;;;;;;;;;;;14.66;86.95;99564.75;5090884;28;20407;-64
2022/12/22 12:22:37;;;;;;;;;;;;;;;14.66;85.88;99559.41;5093725;28;19919;-65
2022/12/22 12:25:10;;;;;;;;;;;;;;;14.69;84.58;99559.22;5079039;28;19921;-64
2022/12/22 12:27:54;;;;;;;;;;;;;;;14.60;85.19;99565.09;5073087;28;19954;-64
2022/12/22 12:30:20;;;;;;;;;;;;;;;14.59;84.94;99568.72;5079301;28;19948;-65
2022/12/22 12:32:52;;;;;;;;;;;;;;;14.61;84.89;99572.19;5093352;28;20313;-64
2022/12/22 12:35:17;;;;;;;;;;;;;;;14.59;86.32;99582.09;5090122;28;19938;-64
2022/12/22 12:37:45;;;;;;;;;;;;;;;14.55;86.83;99577.84;5075193;28;20303;-64
2022/12/22 12:40:29;;;;;;;;;;;;;;;14.51;85.95;99579.00;5073038;28;20278;-64
2022/12/22 12:42:56;;;;;;;;;;;;;;;14.49;86.88;99591.59;5075081;28;19920;-64
2022/12/22 12:45:56;;;;;;;;;;;;;;;14.46;85.69;99576.56;5073119;28;19931;-64
2022/12/22 12:48:22;;;;;;;;;;;;;;;14.42;86.66;99580.38;5058367;28;19929;-64
2022/12/22 12:50:47;;;;;;;;;;;;;;;14.50;86.12;99593.31;5071947;28;20008;-63
2022/12/22 12:53:13;;;;;;;;;;;;;;;14.47;86.27;99593.47;5089410;28;19932;-64
2022/12/22 12:55:38;;;;;;;;;;;;;;;14.47;87.45;99605.06;5081735;28;19933;-64
2022/12/22 12:58:04;;;;;;;;;;;;;;;14.47;85.93;99610.41;5093040;28;20018;-63
2022/12/22 13:00:29;;;;;;;;;;;;;;;14.50;87.50;99609.38;5083024;28;19979;-63
2022/12/22 13:02:56;;;;;;;;;;;;;;;14.45;87.29;99611.44;5075467;28;19930;-64
2022/12/22 13:05:35;;;;;;;;;;;;;;;14.43;86.96;99618.69;5108375;28;19991;-64
2022/12/22 13:08:06;;;;;;;;;;;;;;;14.39;88.15;99617.13;5088990;28;19983;-63
2022/12/22 13:10:33;;;;;;;;;;;;;;;14.36;87.56;99614.63;5092568;28;19919;-63
2022/12/22 13:12:58;;;;;;;;;;;;;;;14.33;86.83;99623.66;5078990;28;19937;-64
2022/12/22 13:15:27;;;;;;;;;;;;;;;14.34;87.02;99620.06;5074627;28;20331;-64
2022/12/22 13:17:53;;;;;;;;;;;;;;;14.40;86.38;99626.88;5077242;28;20015;-64
2022/12/22 13:20:38;;;;;;;;;;;;;;;14.36;88.02;99623.50;5084222;28;20007;-64
2022/12/22 13:23:10;;;;;;;;;;;;;;;14.33;87.79;99622.81;5088624;28;19935;-64
2022/12/22 13:25:40;;;;;;;;;;;;;;;14.28;88.71;99616.84;5088752;28;20437;-64
2022/12/22 13:28:09;;;;;;;;;;;;;;;14.28;87.79;99617.69;5072005;28;19958;-64
2022/12/22 13:30:34;;;;;;;;;;;;;;;14.24;87.16;99617.91;5071782;28;19982;-64
2022/12/22 13:33:01;;;;;;;;;;;;;;;14.31;87.27;99624.72;5076961;28;19982;-62
2022/12/22 13:35:26;;;;;;;;;;;;;;;14.29;87.49;99627.47;5071930;28;19960;-61
2022/12/22 13:37:56;;;;;;;;;;;;;;;14.28;87.03;99619.53;5074126;28;19973;-61
2022/12/22 13:40:29;;;;;;;;;;;;;;;14.24;87.78;99616.13;5087711;28;20299;-61
2022/12/22 13:43:27;;;;;;;;;;;;;;;14.22;86.78;99615.31;5091885;28;19929;-61
2022/12/22 13:45:54;;;;;;;;;;;;;;;14.26;86.87;99624.09;5055784;28;19917;-61
2022/12/22 13:48:29;;;;;;;;;;;;;;;14.27;86.20;99617.78;5071581;28;19961;-61
2022/12/22 13:50:56;;;;;;;;;;;;;;;14.28;87.29;99620.38;5074171;28;20347;-61
2022/12/22 13:53:27;;;;;;;;;;;;;;;14.31;87.02;99622.03;5090708;28;19993;-62
2022/12/22 13:55:53;;;;;;;;;;;;;;;14.27;87.09;99624.00;5091702;28;20687;-62
2022/12/22 13:58:26;;;;;;;;;;;;;;;14.26;86.96;99621.41;5075629;28;19920;-62
2022/12/22 14:01:02;;;;;;;;;;;;;;;14.25;85.87;99620.53;5071536;28;19942;-61
2022/12/22 14:03:27;;;;;;;;;;;;;;;14.21;86.13;99616.28;5085878;28;19920;-62
2022/12/22 14:05:53;;;;;;;;;;;;;;;14.23;85.89;99629.56;5111833;28;19916;-61
2022/12/22 14:08:21;;;;;;;;;;;;;;;14.28;85.44;99619.53;5107559;28;19951;-62
2022/12/22 14:10:47;;;;;;;;;;;;;;;14.28;85.14;99624.88;5089381;28;20293;-62
2022/12/22 14:13:17;;;;;;;;;;;;;;;14.31;84.80;99630.06;5091745;28;19928;-61
2022/12/22 14:15:43;;;;;;;;;;;;;;;14.27;85.53;99629.34;5080171;28;20291;-61
2022/12/22 14:18:16;;;;;;;;;;;;;;;14.31;84.35;99624.72;5071483;28;19954;-61
2022/12/22 14:20:43;;;;;;;;;;;;;;;14.28;85.12;99633.75;5073587;28;20377;-61
2022/12/22 14:23:20;;;;;;;;;;;;;;;14.29;83.97;99631.94;5088820;28;20322;-61
2022/12/22 14:25:47;;;;;;;;;;;;;;;14.27;85.67;99641.84;5091256;28;19996;-61
2022/12/22 14:28:18;;;;;;;;;;;;;;;14.25;84.55;99631.25;5075276;28;19955;-61
2022/12/22 14:30:45;;;;;;;;;;;;;;;14.30;85.73;99652.38;5071134;28;20465;-61
2022/12/22 14:33:15;;;;;;;;;;;;;;;14.24;85.58;99631.28;5073530;28;19916;-61
2022/12/22 14:35:40;;;;;;;;;;;;;;;14.23;86.25;99642.94;5071121;28;19909;-61
2022/12/22 14:38:05;;;;;;;;;;;;;;;14.23;86.49;99640.28;5070820;28;19940;-61
2022/12/22 14:40:32;;;;;;;;;;;;;;;14.19;86.98;99644.91;5073924;28;20442;-61
2022/12/22 14:42:58;;;;;;;;;;;;;;;14.21;86.59;99639.47;5071229;28;19928;-61
2022/12/22 14:45:24;;;;;;;;;;;;;;;14.22;86.75;99642.06;5079061;28;20015;-61
2022/12/22 14:47:50;;;;;;;;;;;;;;;14.16;87.90;99646.88;5070756;28;20446;-61
2022/12/22 14:50:16;;;;;;;;;;;;;;;14.14;87.68;99648.78;5071211;28;20034;-61
2022/12/22 14:52:48;;;;;;;;;;;;;;;14.08;88.82;99654.44;5086915;28;19965;-61
2022/12/22 14:55:25;;;;;;;;;;;;;;;14.05;89.49;99646.59;5091201;28;20721;-61
2022/12/22 14:57:53;;;;;;;;;;;;;;;13.98;89.79;99648.72;5078630;28;19916;-61
2022/12/22 15:00:21;;;;;;;;;;;;;;;13.97;90.38;99646.97;5088936;28;19970;-61
2022/12/22 15:02:50;;;;;;;;;;;;;;;13.88;91.62;99642.13;5088246;28;19972;-61
2022/12/22 15:05:25;;;;;;;;;;;;;;;13.81;92.40;99658.53;5101662;28;20423;-61
2022/12/22 15:07:51;;;;;;;;;;;;;;;13.77;93.23;99649.81;5091169;28;19980;-61
2022/12/22 15:10:17;;;;;;;;;;;;;;;13.79;93.03;99653.28;5089802;28;19968;-61
2022/12/22 15:12:43;;;;;;;;;;;;;;;13.73;93.47;99644.72;5072892;28;20017;-61
2022/12/22 15:15:18;;;;;;;;;;;;;;;13.68;93.57;99644.06;5070944;28;20276;-61
2022/12/22 15:17:45;;;;;;;;;;;;;;;13.59;93.94;99661.44;5071112;28;20275;-61
2022/12/22 15:20:18;;;;;;;;;;;;;;;13.60;94.43;99659.66;5080678;28;19915;-61
2022/12/22 15:22:44;;;;;;;;;;;;;;;13.61;94.51;99659.56;5094117;28;19935;-61
2022/12/22 15:25:19;;;;;;;;;;;;;;;13.53;94.54;99650.19;5093062;28;19916;-61
2022/12/22 15:27:45;;;;;;;;;;;;;;;13.49;95.33;99643.28;5089818;28;19955;-61
2022/12/22 15:30:12;;;;;;;;;;;;;;;13.43;94.75;99646.25;5094091;28;19983;-61
2022/12/22 15:32:38;;;;;;;;;;;;;;;13.37;94.97;99638.56;5089154;28;19935;-61
2022/12/22 15:35:13;;;;;;;;;;;;;;;13.31;95.51;99645.06;5093868;28;20027;-61
2022/12/22 15:37:38;;;;;;;;;;;;;;;13.35;95.83;99635.09;5094396;28;19912;-61
2022/12/22 15:40:05;;;;;;;;;;;;;;;13.42;95.64;99641.88;5094390;28;19970;-61
2022/12/22 15:42:30;;;;;;;;;;;;;;;13.33;96.75;99634.31;5085322;28;20313;-61
2022/12/22 15:44:56;;;;;;;;;;;;;;;13.23;97.23;99630.38;5094032;28;19969;-61
2022/12/22 15:47:21;;;;;;;;;;;;;;;13.23;97.30;99625.03;5090076;28;19978;-61
2022/12/22 15:49:46;;;;;;;;;;;;;;;13.16;97.84;99619.97;5094180;28;19951;-61
2022/12/22 15:52:12;;;;;;;;;;;;;;;13.16;97.58;99619.97;5093348;28;19930;-61
2022/12/22 15:54:37;;;;;;;;;;;;;;;13.16;97.61;99624.47;5076344;28;19975;-61
2022/12/22 15:57:02;;;;;;;;;;;;;;;13.14;97.76;99621.00;5074009;28;20286;-61
2022/12/22 15:59:28;;;;;;;;;;;;;;;13.15;97.89;99618.25;5074644;28;20394;-61
2022/12/22 16:01:56;;;;;;;;;;;;;;;13.13;98.27;99620.13;5073721;28;19934;-61
2022/12/22 16:04:22;;;;;;;;;;;;;;;13.08;98.93;99611.47;5087883;28;19947;-61
2022/12/22 16:06:49;;;;;;;;;;;;;;;13.03;100.00;99618.00;5075426;28;19933;-61
2022/12/22 16:09:26;;;;;;;;;;;;;;;13.06;100.00;99615.19;5073752;28;19964;-61
2022/12/22 16:11:51;;;;;;;;;;;;;;;12.97;100.00;99616.44;5078753;28;20388;-61
2022/12/22 16:14:17;;;;;;;;;;;;;;;12.96;100.00;99611.19;5093802;28;20011;-61
2022/12/22 16:16:42;;;;;;;;;;;;;;;12.94;100.00;99597.91;5093654;28;19927;-61
2022/12/22 16:19:12;;;;;;;;;;;;;;;12.93;100.00;99603.34;5093630;28;19938;-61
2022/12/22 16:21:37;;;;;;;;;;;;;;;12.88;100.00;99603.53;5088882;28;20010;-62
2022/12/22 16:24:04;;;;;;;;;;;;;;;12.90;100.00;99604.34;5093519;28;19986;-61
2022/12/22 16:26:29;;;;;;;;;;;;;;;12.87;100.00;99599.16;5093184;28;19931;-61